createdAt,value
2022-10-02T00:00:27.190Z,10.62
2022-10-02T00:03:35.100Z,10.62
2022-10-02T00:06:42.893Z,10.68
2022-10-02T00:09:50.474Z,10.68
2022-10-02T00:12:58.461Z,10.66
2022-10-02T00:16:06.383Z,10.68
2022-10-02T00:19:13.935Z,10.70
2022-10-02T00:22:21.938Z,10.70
2022-10-02T00:25:29.124Z,10.65
2022-10-02T00:28:37.286Z,10.68
2022-10-02T00:31:45.136Z,10.73
2022-10-02T00:34:52.428Z,10.78
2022-10-02T00:38:00.618Z,10.86
2022-10-02T00:41:08.290Z,10.91
2022-10-02T00:44:15.671Z,10.96
2022-10-02T00:47:23.842Z,11.09
2022-10-02T00:50:23.379Z,11.13
2022-10-02T00:53:31.230Z,11.16
2022-10-02T00:56:39.304Z,11.14
2022-10-02T00:59:47.058Z,11.11
2022-10-02T01:02:54.434Z,11.11
2022-10-02T01:06:02.405Z,11.07
2022-10-02T01:09:09.913Z,11.09
2022-10-02T01:12:17.314Z,11.09
2022-10-02T01:15:24.799Z,11.10
2022-10-02T01:18:32.697Z,11.10
2022-10-02T01:21:40.132Z,11.13
2022-10-02T01:24:47.844Z,11.16
2022-10-02T01:27:55.895Z,11.13
2022-10-02T01:31:03.440Z,11.14
2022-10-02T01:34:11.163Z,11.13
2022-10-02T01:37:19.141Z,11.17
2022-10-02T01:40:26.341Z,11.13
2022-10-02T01:43:34.401Z,11.09
2022-10-02T01:46:41.861Z,11.02
2022-10-02T01:49:49.094Z,10.94
2022-10-02T01:52:57.095Z,10.91
2022-10-02T01:56:05.205Z,10.92
2022-10-02T01:59:12.356Z,10.89
2022-10-02T02:02:20.113Z,10.88
2022-10-02T02:05:27.737Z,10.91
2022-10-02T02:08:35.227Z,10.94
2022-10-02T02:11:43.188Z,10.92
2022-10-02T02:14:50.801Z,10.88
2022-10-02T02:17:58.219Z,10.84
2022-10-02T02:21:05.740Z,10.80
2022-10-02T02:24:13.669Z,10.73
2022-10-02T02:27:21.191Z,10.63
2022-10-02T02:30:28.731Z,10.58
2022-10-02T02:33:36.692Z,10.53
2022-10-02T02:36:44.462Z,10.51
2022-10-02T02:39:51.904Z,10.52
2022-10-02T02:42:59.424Z,10.55
2022-10-02T02:46:06.647Z,10.53
2022-10-02T02:49:14.525Z,10.47
2022-10-02T02:52:22.354Z,10.51
2022-10-02T02:55:29.457Z,10.43
2022-10-02T02:58:37.315Z,10.37
2022-10-02T03:01:45.334Z,10.25
2022-10-02T03:04:52.538Z,10.21
2022-10-02T03:08:00.550Z,10.17
2022-10-02T03:11:08.058Z,10.10
2022-10-02T03:14:15.718Z,10.07
2022-10-02T03:17:23.630Z,10.07
2022-10-02T03:20:31.332Z,10.03
2022-10-02T03:23:38.994Z,10.04
2022-10-02T03:26:46.991Z,10.12
2022-10-02T03:29:54.584Z,10.28
2022-10-02T03:33:02.331Z,10.34
2022-10-02T03:36:10.068Z,10.42
2022-10-02T03:39:25.109Z,10.51
2022-10-02T03:42:22.119Z,10.55
2022-10-02T03:45:50.044Z,10.60
2022-10-02T03:48:34.678Z,10.58
2022-10-02T03:51:42.148Z,10.53
2022-10-02T03:54:49.390Z,10.53
2022-10-02T03:57:57.389Z,10.59
2022-10-02T04:01:04.490Z,10.53
2022-10-02T04:04:12.462Z,10.58
2022-10-02T04:07:20.423Z,10.60
2022-10-02T04:10:27.501Z,10.59
2022-10-02T04:13:35.222Z,10.66
2022-10-02T04:16:42.932Z,10.81
2022-10-02T04:19:50.095Z,10.84
2022-10-02T04:22:58.185Z,10.91
2022-10-02T04:26:05.663Z,11.01
2022-10-02T04:29:13.096Z,11.11
2022-10-02T04:32:20.587Z,11.16
2022-10-02T04:35:27.978Z,11.34
2022-10-02T04:38:35.928Z,11.41
2022-10-02T04:41:43.769Z,11.43
2022-10-02T04:44:51.259Z,11.47
2022-10-02T04:47:58.763Z,11.50
2022-10-02T04:51:05.931Z,11.47
2022-10-02T04:54:13.781Z,11.46
2022-10-02T04:57:21.396Z,11.46
2022-10-02T05:00:28.584Z,11.44
2022-10-02T05:03:36.607Z,11.38
2022-10-02T05:06:44.141Z,11.34
2022-10-02T05:09:51.345Z,11.25
2022-10-02T05:12:59.354Z,11.20
2022-10-02T05:16:07.024Z,11.20
2022-10-02T05:19:14.617Z,11.17
2022-10-02T05:22:22.207Z,11.21
2022-10-02T05:25:29.418Z,11.31
2022-10-02T05:28:37.455Z,11.39
2022-10-02T05:31:45.416Z,11.49
2022-10-02T05:34:52.545Z,11.56
2022-10-02T05:38:00.794Z,11.67
2022-10-02T05:41:08.382Z,11.74
2022-10-02T05:44:16.185Z,11.75
2022-10-02T05:47:24.191Z,11.75
2022-10-02T05:50:31.884Z,11.77
2022-10-02T05:53:39.374Z,11.75
2022-10-02T05:56:47.525Z,11.71
2022-10-02T05:59:55.016Z,11.65
2022-10-02T06:03:02.328Z,11.62
2022-10-02T06:06:09.995Z,11.59
2022-10-02T06:09:20.010Z,11.59
2022-10-02T06:12:28.421Z,11.57
2022-10-02T06:15:36.197Z,11.57
2022-10-02T06:18:44.382Z,11.61
2022-10-02T06:21:52.151Z,11.59
2022-10-02T06:24:59.964Z,11.54
2022-10-02T06:28:07.663Z,11.53
2022-10-02T06:31:15.280Z,11.50
2022-10-02T06:34:23.602Z,11.52
2022-10-02T06:37:31.397Z,11.49
2022-10-02T06:40:39.056Z,11.47
2022-10-02T06:43:47.306Z,11.54
2022-10-02T06:46:54.994Z,11.64
2022-10-02T06:50:02.746Z,11.72
2022-10-02T06:53:10.603Z,11.72
2022-10-02T06:56:17.910Z,11.77
2022-10-02T06:59:25.847Z,11.87
2022-10-02T07:02:34.177Z,12.11
2022-10-02T07:05:41.425Z,12.29
2022-10-02T07:08:49.369Z,12.45
2022-10-02T07:11:57.093Z,12.57
2022-10-02T07:15:04.343Z,12.59
2022-10-02T07:18:12.530Z,12.66
2022-10-02T07:21:20.693Z,12.81
2022-10-02T07:24:28.264Z,12.87
2022-10-02T07:27:36.276Z,12.89
2022-10-02T07:30:43.934Z,13.06
2022-10-02T07:33:51.589Z,13.07
2022-10-02T07:36:59.395Z,13.00
2022-10-02T07:40:06.799Z,12.99
2022-10-02T07:43:14.242Z,12.97
2022-10-02T07:46:21.930Z,13.11
2022-10-02T07:49:29.862Z,13.12
2022-10-02T07:52:37.414Z,13.27
2022-10-02T07:55:45.102Z,13.46
2022-10-02T07:58:52.977Z,13.59
2022-10-02T08:02:00.674Z,13.59
2022-10-02T08:05:08.157Z,13.73
2022-10-02T08:08:15.693Z,13.79
2022-10-02T08:11:22.827Z,13.73
2022-10-02T08:14:30.597Z,13.62
2022-10-02T08:17:38.059Z,13.52
2022-10-02T08:20:45.579Z,13.55
2022-10-02T08:23:53.372Z,13.62
2022-10-02T08:27:00.950Z,13.92
2022-10-02T08:30:08.623Z,13.99
2022-10-02T08:33:16.613Z,14.09
2022-10-02T08:36:23.826Z,14.12
2022-10-02T08:39:31.778Z,14.02
2022-10-02T08:42:39.695Z,14.06
2022-10-02T08:45:47.694Z,14.02
2022-10-02T08:48:55.616Z,14.07
2022-10-02T08:52:03.476Z,14.12
2022-10-02T08:55:10.531Z,14.20
2022-10-02T08:58:18.400Z,14.29
2022-10-02T09:01:25.840Z,14.49
2022-10-02T09:04:33.411Z,14.44
2022-10-02T09:07:40.952Z,14.28
2022-10-02T09:10:48.491Z,14.43
2022-10-02T09:13:55.973Z,14.54
2022-10-02T09:17:03.893Z,14.60
2022-10-02T09:20:11.375Z,14.52
2022-10-02T09:23:19.023Z,14.54
2022-10-02T09:26:26.588Z,14.65
2022-10-02T09:29:34.627Z,14.72
2022-10-02T09:32:42.181Z,14.88
2022-10-02T09:35:49.819Z,15.09
2022-10-02T09:38:57.779Z,15.26
2022-10-02T09:42:04.938Z,15.35
2022-10-02T09:45:12.642Z,15.52
2022-10-02T09:48:20.603Z,15.54
2022-10-02T09:51:27.841Z,15.60
2022-10-02T09:54:35.667Z,15.74
2022-10-02T09:57:43.756Z,15.88
2022-10-02T10:00:50.935Z,15.89
2022-10-02T10:03:58.763Z,15.61
2022-10-02T10:07:06.309Z,15.42
2022-10-02T10:10:13.741Z,15.35
2022-10-02T10:13:21.528Z,15.39
2022-10-02T10:16:28.933Z,15.48
2022-10-02T10:19:36.511Z,15.67
2022-10-02T10:22:44.443Z,15.76
2022-10-02T10:25:51.563Z,15.79
2022-10-02T10:28:58.990Z,15.86
2022-10-02T10:32:06.551Z,15.96
2022-10-02T10:35:14.107Z,16.11
2022-10-02T10:38:21.675Z,16.27
2022-10-02T10:41:29.178Z,16.31
2022-10-02T10:44:37.056Z,16.09
2022-10-02T10:47:44.220Z,15.92
2022-10-02T10:50:51.690Z,15.78
2022-10-02T10:54:01.935Z,15.74
2022-10-02T10:57:09.332Z,15.67
2022-10-02T11:00:17.292Z,15.74
2022-10-02T11:03:24.973Z,15.81
2022-10-02T11:06:32.086Z,15.99
2022-10-02T11:09:40.035Z,16.20
2022-10-02T11:12:47.897Z,16.41
2022-10-02T11:15:55.235Z,16.59
2022-10-02T11:19:03.040Z,16.45
2022-10-02T11:22:10.180Z,16.33
2022-10-02T11:25:17.758Z,16.22
2022-10-02T11:28:25.910Z,16.01
2022-10-02T11:31:34.274Z,16.07
2022-10-02T11:34:42.856Z,16.25
2022-10-02T11:37:50.924Z,16.49
2022-10-02T11:40:58.941Z,16.86
2022-10-02T11:44:08.206Z,17.04
2022-10-02T11:47:16.727Z,17.03
2022-10-02T11:50:25.508Z,16.90
2022-10-02T11:53:34.386Z,16.93
2022-10-02T11:56:42.486Z,17.00
2022-10-02T11:59:50.394Z,16.75
2022-10-02T12:02:59.814Z,16.52
2022-10-02T12:06:08.743Z,16.49
2022-10-02T12:09:16.516Z,16.55
2022-10-02T12:12:27.718Z,16.59
2022-10-02T12:15:25.741Z,16.74
2022-10-02T12:18:34.371Z,17.00
2022-10-02T12:21:42.394Z,17.10
2022-10-02T12:24:54.731Z,16.92
2022-10-02T12:27:53.332Z,16.74
2022-10-02T12:31:01.787Z,16.58
2022-10-02T12:34:10.567Z,16.44
2022-10-02T12:37:18.579Z,16.37
2022-10-02T12:40:27.056Z,16.26
2022-10-02T12:43:35.380Z,16.20
2022-10-02T12:46:43.844Z,16.00
2022-10-02T12:49:52.140Z,15.75
2022-10-02T12:53:00.133Z,15.51
2022-10-02T12:56:08.975Z,15.48
2022-10-02T12:59:17.326Z,15.43
2022-10-02T13:02:42.849Z,15.33
2022-10-02T13:05:30.477Z,15.31
2022-10-02T13:08:39.646Z,15.21
2022-10-02T13:11:47.240Z,15.23
2022-10-02T13:14:55.023Z,15.19
2022-10-02T13:18:03.705Z,15.21
2022-10-02T13:21:11.095Z,15.28
2022-10-02T13:24:19.468Z,15.35
2022-10-02T13:27:31.272Z,15.46
2022-10-02T13:30:28.789Z,15.63
2022-10-02T13:33:37.368Z,15.78
2022-10-02T13:36:45.591Z,15.85
2022-10-02T13:39:53.791Z,15.94
2022-10-02T13:43:02.572Z,16.01
2022-10-02T13:46:10.533Z,15.99
2022-10-02T13:49:18.345Z,15.94
2022-10-02T13:52:25.775Z,15.82
2022-10-02T13:55:33.803Z,15.79
2022-10-02T13:58:42.197Z,15.85
2022-10-02T14:01:50.495Z,15.96
2022-10-02T14:04:59.333Z,16.00
2022-10-02T14:08:07.261Z,15.96
2022-10-02T14:11:15.370Z,15.86
2022-10-02T14:14:23.596Z,15.81
2022-10-02T14:17:31.113Z,15.78
2022-10-02T14:20:39.524Z,15.79
2022-10-02T14:23:47.193Z,15.88
2022-10-02T14:26:54.705Z,15.93
2022-10-02T14:30:03.289Z,15.89
2022-10-02T14:33:11.619Z,15.82
2022-10-02T14:36:19.127Z,15.76
2022-10-02T14:39:27.672Z,15.76
2022-10-02T14:42:36.102Z,15.72
2022-10-02T14:45:44.269Z,15.72
2022-10-02T14:48:52.403Z,15.70
2022-10-02T14:52:00.347Z,15.68
2022-10-02T14:55:08.495Z,15.66
2022-10-02T14:58:16.637Z,15.66
2022-10-02T15:01:24.273Z,15.63
2022-10-02T15:04:32.785Z,15.68
2022-10-02T15:07:40.902Z,15.68
2022-10-02T15:10:48.598Z,15.70
2022-10-02T15:13:56.853Z,15.67
2022-10-02T15:17:04.936Z,15.70
2022-10-02T15:20:12.808Z,15.76
2022-10-02T15:23:22.224Z,15.79
2022-10-02T15:26:30.685Z,15.67
2022-10-02T15:29:39.073Z,15.46
2022-10-02T15:32:46.706Z,15.28
2022-10-02T15:35:54.655Z,15.13
2022-10-02T15:39:02.306Z,14.90
2022-10-02T15:42:09.967Z,14.60
2022-10-02T15:45:17.578Z,14.14
2022-10-02T15:48:25.158Z,13.55
2022-10-02T15:51:32.867Z,13.20
2022-10-02T15:54:40.880Z,13.00
2022-10-02T15:57:48.249Z,12.88
2022-10-02T16:00:56.135Z,12.84
2022-10-02T16:04:03.782Z,12.79
2022-10-02T16:07:11.214Z,12.71
2022-10-02T16:10:18.629Z,12.64
2022-10-02T16:13:26.153Z,12.63
2022-10-02T16:16:34.090Z,12.54
2022-10-02T16:19:42.178Z,12.45
2022-10-02T16:22:50.733Z,12.38
2022-10-02T16:25:58.940Z,12.34
2022-10-02T16:29:07.670Z,12.26
2022-10-02T16:32:15.382Z,12.21
2022-10-02T16:35:23.380Z,12.16
2022-10-02T16:38:31.932Z,12.12
2022-10-02T16:41:39.312Z,12.06
2022-10-02T16:44:47.542Z,12.06
2022-10-02T16:47:55.606Z,12.01
2022-10-02T16:51:02.935Z,11.94
2022-10-02T16:54:10.855Z,11.85
2022-10-02T16:57:18.913Z,11.80
2022-10-02T17:00:26.027Z,11.74
2022-10-02T17:03:33.968Z,11.72
2022-10-02T17:06:41.419Z,11.67
2022-10-02T17:09:48.601Z,11.62
2022-10-02T17:12:58.027Z,11.62
2022-10-02T17:16:05.907Z,11.57
2022-10-02T17:19:13.609Z,11.61
2022-10-02T17:22:23.828Z,11.67
2022-10-02T17:25:24.648Z,11.68
2022-10-02T17:28:32.862Z,11.68
2022-10-02T17:31:40.682Z,11.62
2022-10-02T17:34:49.325Z,11.61
2022-10-02T17:37:57.083Z,11.62
2022-10-02T17:41:04.890Z,11.57
2022-10-02T17:44:13.064Z,11.57
2022-10-02T17:47:20.798Z,11.54
2022-10-02T17:50:28.408Z,11.54
2022-10-02T17:53:36.772Z,11.59
2022-10-02T17:56:43.979Z,11.62
2022-10-02T17:59:51.700Z,11.65
2022-10-02T18:03:00.093Z,11.70
2022-10-02T18:06:07.423Z,11.75
2022-10-02T18:09:15.641Z,11.77
2022-10-02T18:12:23.813Z,11.75
2022-10-02T18:15:31.275Z,11.72
2022-10-02T18:18:39.078Z,11.70
2022-10-02T18:21:47.193Z,11.64
2022-10-02T18:24:54.567Z,11.54
2022-10-02T18:28:03.001Z,11.54
2022-10-02T18:31:11.073Z,11.50
2022-10-02T18:34:18.708Z,11.49
2022-10-02T18:37:26.821Z,11.46
2022-10-02T18:40:34.630Z,11.41
2022-10-02T18:43:42.431Z,11.38
2022-10-02T18:46:50.703Z,11.38
2022-10-02T18:49:58.643Z,11.35
2022-10-02T18:53:06.302Z,11.31
2022-10-02T18:56:14.014Z,11.25
2022-10-02T18:59:21.813Z,11.28
2022-10-02T19:02:29.676Z,11.29
2022-10-02T19:05:37.245Z,11.32
2022-10-02T19:08:45.435Z,11.38
2022-10-02T19:11:53.185Z,11.46
2022-10-02T19:15:00.907Z,11.52
2022-10-02T19:18:08.628Z,11.56
2022-10-02T19:21:16.308Z,11.56
2022-10-02T19:24:23.919Z,11.61
2022-10-02T19:27:32.383Z,11.62
2022-10-02T19:30:43.493Z,11.65
2022-10-02T19:33:42.760Z,11.61
2022-10-02T19:36:51.023Z,11.56
2022-10-02T19:39:58.444Z,11.54
2022-10-02T19:43:06.615Z,11.52
2022-10-02T19:46:13.991Z,11.50
2022-10-02T19:49:21.588Z,11.50
2022-10-02T19:52:29.807Z,11.49
2022-10-02T19:55:37.083Z,11.43
2022-10-02T19:58:44.782Z,11.36
2022-10-02T20:01:52.929Z,11.29
2022-10-02T20:05:00.281Z,11.25
2022-10-02T20:08:08.191Z,11.19
2022-10-02T20:11:15.968Z,11.14
2022-10-02T20:14:23.642Z,11.11
2022-10-02T20:17:31.473Z,11.11
2022-10-02T20:20:39.415Z,11.10
2022-10-02T20:23:47.251Z,11.07
2022-10-02T20:26:54.622Z,11.03
2022-10-02T20:30:02.126Z,11.02
2022-10-02T20:33:09.886Z,11.01
2022-10-02T20:36:17.388Z,10.98
2022-10-02T20:39:25.410Z,11.01
2022-10-02T20:42:33.009Z,11.06
2022-10-02T20:45:40.640Z,11.09
2022-10-02T20:49:07.623Z,11.13
2022-10-02T20:51:53.512Z,11.14
2022-10-02T20:55:01.332Z,11.11
2022-10-02T20:58:09.271Z,11.07
2022-10-02T21:01:17.108Z,11.03
2022-10-02T21:04:24.683Z,10.99
2022-10-02T21:07:32.886Z,10.92
2022-10-02T21:10:40.104Z,10.84
2022-10-02T21:13:48.075Z,10.83
2022-10-02T21:16:56.221Z,10.83
2022-10-02T21:20:03.476Z,10.89
2022-10-02T21:23:11.599Z,10.91
2022-10-02T21:26:19.171Z,10.86
2022-10-02T21:29:26.960Z,10.86
2022-10-02T21:32:34.962Z,10.83
2022-10-02T21:35:42.309Z,10.78
2022-10-02T21:38:50.480Z,10.71
2022-10-02T21:41:58.128Z,10.68
2022-10-02T21:45:06.265Z,10.65
2022-10-02T21:48:13.972Z,10.60
2022-10-02T21:51:21.695Z,10.58
2022-10-02T21:54:29.853Z,10.55
2022-10-02T21:57:37.482Z,10.55
2022-10-02T22:00:45.206Z,10.53
2022-10-02T22:03:53.396Z,10.59
2022-10-02T22:07:00.566Z,10.63
2022-10-02T22:10:08.645Z,10.68
2022-10-02T22:13:15.816Z,10.66
2022-10-02T22:16:23.903Z,10.65
2022-10-02T22:19:31.658Z,10.59
2022-10-02T22:22:38.881Z,10.55
2022-10-02T22:25:46.945Z,10.52
2022-10-02T22:28:54.849Z,10.51
2022-10-02T22:32:02.100Z,10.46
2022-10-02T22:35:10.178Z,10.44
2022-10-02T22:38:18.285Z,10.43
2022-10-02T22:41:25.947Z,10.42
2022-10-02T22:44:33.664Z,10.42
2022-10-02T22:47:41.462Z,10.42
2022-10-02T22:50:49.175Z,10.39
2022-10-02T22:53:56.989Z,10.36
2022-10-02T22:57:04.716Z,10.37
2022-10-02T23:00:12.386Z,10.39
2022-10-02T23:03:20.109Z,10.36
2022-10-02T23:06:30.740Z,10.34
2022-10-02T23:09:28.195Z,10.37
2022-10-02T23:12:36.821Z,10.40
2022-10-02T23:15:44.803Z,10.51
2022-10-02T23:18:52.519Z,10.56
2022-10-02T23:22:00.092Z,10.63
2022-10-02T23:25:08.040Z,10.68
2022-10-02T23:28:15.396Z,10.74
2022-10-02T23:31:23.349Z,10.78
2022-10-02T23:34:31.303Z,10.81
2022-10-02T23:37:38.600Z,10.84
2022-10-02T23:40:46.605Z,10.91
2022-10-02T23:43:54.126Z,10.95
2022-10-02T23:47:01.358Z,10.98
2022-10-02T23:50:09.436Z,11.01
2022-10-02T23:53:16.759Z,11.02
2022-10-02T23:56:24.779Z,11.07
2022-10-02T23:59:32.407Z,11.10
